createdAt,value
2017-11-10T00:01:40.625Z,88.60
2017-11-10T00:04:08.756Z,88.70
2017-11-10T00:06:37.693Z,88.30
2017-11-10T00:09:05.801Z,88.30
2017-11-10T00:11:34.729Z,88.60
2017-11-10T00:14:02.856Z,88.50
2017-11-10T00:16:31.003Z,88.50
2017-11-10T00:18:59.166Z,88.60
2017-11-10T00:21:27.305Z,88.30
2017-11-10T00:23:56.264Z,88.00
2017-11-10T00:26:25.958Z,87.70
2017-11-10T00:28:54.089Z,87.60
2017-11-10T00:31:22.267Z,88.20
2017-11-10T00:33:50.415Z,88.20
2017-11-10T00:36:18.555Z,87.50
2017-11-10T00:38:46.701Z,87.80
2017-11-10T00:41:14.839Z,87.80
2017-11-10T00:43:42.984Z,87.80
2017-11-10T00:46:11.144Z,88.10
2017-11-10T00:48:39.302Z,88.60
2017-11-10T00:51:07.430Z,88.10
2017-11-10T00:53:35.573Z,87.70
2017-11-10T00:56:03.718Z,88.10
2017-11-10T00:58:31.861Z,88.40
2017-11-10T01:01:00.027Z,88.30
2017-11-10T01:03:28.149Z,88.30
2017-11-10T01:05:56.321Z,88.80
2017-11-10T01:08:24.510Z,88.80
2017-11-10T01:10:52.681Z,88.70
2017-11-10T01:13:22.949Z,88.70
2017-11-10T01:15:51.099Z,88.70
2017-11-10T01:18:19.258Z,88.90
2017-11-10T01:20:48.182Z,88.30
2017-11-10T01:23:16.335Z,88.20
2017-11-10T01:25:44.504Z,87.90
2017-11-10T01:28:12.659Z,88.50
2017-11-10T01:30:41.569Z,89.70
2017-11-10T01:33:09.705Z,89.10
2017-11-10T01:35:37.854Z,88.80
2017-11-10T01:38:05.996Z,89.20
2017-11-10T01:40:34.123Z,88.90
2017-11-10T01:43:03.044Z,89.70
2017-11-10T01:45:31.949Z,89.70
2017-11-10T01:48:00.096Z,89.70
2017-11-10T01:50:28.980Z,90.10
2017-11-10T01:52:57.911Z,90.40
2017-11-10T01:55:26.039Z,90.00
2017-11-10T01:57:54.201Z,90.40
2017-11-10T02:00:22.934Z,90.20
2017-11-10T02:02:51.093Z,89.40
2017-11-10T02:05:19.260Z,89.90
2017-11-10T02:07:48.168Z,90.00
2017-11-10T02:10:16.309Z,90.00
2017-11-10T02:12:45.206Z,89.30
2017-11-10T02:15:14.117Z,89.10
2017-11-10T02:17:42.249Z,89.00
2017-11-10T02:20:10.392Z,89.20
2017-11-10T02:22:38.532Z,89.30
2017-11-10T02:25:07.520Z,89.10
2017-11-10T02:27:36.438Z,88.80
2017-11-10T02:30:04.647Z,88.80
2017-11-10T02:32:33.007Z,88.70
2017-11-10T02:35:01.146Z,88.70
2017-11-10T02:37:29.423Z,89.10
2017-11-10T02:39:57.590Z,89.00
2017-11-10T02:42:25.733Z,88.70
2017-11-10T02:44:53.879Z,88.10
2017-11-10T02:47:22.003Z,89.00
2017-11-10T02:49:50.147Z,89.00
2017-11-10T02:52:19.771Z,89.30
2017-11-10T02:54:48.695Z,89.00
2017-11-10T02:57:16.830Z,89.00
2017-11-10T02:59:45.740Z,89.10
2017-11-10T03:02:13.873Z,88.50
2017-11-10T03:04:43.648Z,88.30
2017-11-10T03:07:11.769Z,88.20
2017-11-10T03:09:39.937Z,87.70
2017-11-10T03:12:08.866Z,87.00
2017-11-10T03:14:37.018Z,86.60
2017-11-10T03:17:05.151Z,86.00
2017-11-10T03:19:33.269Z,85.90
2017-11-10T03:22:01.421Z,85.80
2017-11-10T03:24:30.315Z,85.60
2017-11-10T03:26:59.239Z,85.90
2017-11-10T03:29:27.376Z,85.80
2017-11-10T03:31:55.511Z,85.70
2017-11-10T03:34:23.730Z,85.60
2017-11-10T03:36:52.645Z,85.70
2017-11-10T03:39:20.777Z,85.70
2017-11-10T03:41:49.008Z,85.60
2017-11-10T03:44:17.200Z,85.70
2017-11-10T03:46:45.678Z,85.30
2017-11-10T03:49:13.792Z,85.70
2017-11-10T03:51:42.699Z,86.20
2017-11-10T03:54:10.849Z,86.20
2017-11-10T03:56:39.745Z,86.50
2017-11-10T03:59:08.738Z,86.40
2017-11-10T04:01:36.859Z,86.30
2017-11-10T04:04:04.994Z,86.00
2017-11-10T04:06:33.155Z,85.60
2017-11-10T04:09:02.115Z,85.70
2017-11-10T04:11:31.165Z,86.50
2017-11-10T04:13:59.480Z,86.40
2017-11-10T04:16:27.603Z,86.70
2017-11-10T04:18:56.508Z,86.20
2017-11-10T04:21:24.645Z,86.20
2017-11-10T04:23:53.576Z,85.80
2017-11-10T04:26:21.704Z,85.80
2017-11-10T04:28:50.704Z,86.20
2017-11-10T04:31:19.608Z,86.00
2017-11-10T04:33:47.742Z,86.00
2017-11-10T04:36:16.617Z,85.10
2017-11-10T04:38:44.772Z,85.10
2017-11-10T04:41:13.036Z,84.80
2017-11-10T04:43:41.187Z,84.70
2017-11-10T04:46:09.330Z,84.80
2017-11-10T04:48:37.520Z,84.50
2017-11-10T04:51:06.426Z,84.00
2017-11-10T04:53:34.593Z,84.00
2017-11-10T04:56:04.627Z,84.40
2017-11-10T04:58:32.746Z,84.40
2017-11-10T05:01:00.902Z,84.10
2017-11-10T05:03:29.039Z,84.20
2017-11-10T05:05:57.192Z,84.10
2017-11-10T05:08:25.435Z,84.20
2017-11-10T05:10:53.621Z,84.00
2017-11-10T05:13:22.523Z,84.70
2017-11-10T05:15:51.440Z,84.40
2017-11-10T05:18:19.576Z,84.40
2017-11-10T05:20:47.725Z,84.10
2017-11-10T05:23:15.859Z,84.00
2017-11-10T05:25:44.002Z,84.60
2017-11-10T05:28:12.959Z,84.70
2017-11-10T05:30:41.137Z,84.60
2017-11-10T05:33:09.297Z,85.00
2017-11-10T05:35:37.470Z,84.70
2017-11-10T05:38:05.632Z,84.20
2017-11-10T05:40:33.758Z,83.80
2017-11-10T05:43:02.886Z,83.40
2017-11-10T05:45:31.015Z,83.30
2017-11-10T05:47:59.146Z,84.20
2017-11-10T05:50:28.226Z,83.80
2017-11-10T05:52:56.375Z,84.20
2017-11-10T05:55:25.358Z,84.40
2017-11-10T05:57:54.256Z,84.60
2017-11-10T06:00:23.203Z,84.80
2017-11-10T06:02:51.385Z,84.70
2017-11-10T06:05:19.520Z,84.70
2017-11-10T06:07:47.653Z,84.70
2017-11-10T06:10:16.559Z,85.10
2017-11-10T06:12:45.453Z,85.30
2017-11-10T06:15:14.372Z,85.00
2017-11-10T06:17:42.491Z,85.00
2017-11-10T06:20:11.414Z,84.30
2017-11-10T06:22:39.541Z,84.30
2017-11-10T06:25:08.464Z,84.20
2017-11-10T06:27:36.621Z,84.10
2017-11-10T06:30:05.612Z,84.30
2017-11-10T06:32:34.517Z,84.80
2017-11-10T06:35:02.655Z,84.20
2017-11-10T06:37:30.786Z,84.20
2017-11-10T06:39:58.938Z,83.80
2017-11-10T06:42:27.859Z,83.80
2017-11-10T06:44:55.981Z,83.70
2017-11-10T06:47:24.886Z,83.30
2017-11-10T06:49:53.013Z,83.20
2017-11-10T06:52:21.162Z,83.10
2017-11-10T06:54:49.305Z,82.80
2017-11-10T06:57:18.212Z,82.40
2017-11-10T06:59:46.402Z,82.30
2017-11-10T07:02:14.554Z,82.50
2017-11-10T07:04:42.697Z,82.20
2017-11-10T07:07:11.633Z,82.20
2017-11-10T07:12:03.440Z,82.20
2017-11-10T07:14:31.577Z,81.90
2017-11-10T07:16:59.706Z,81.80
2017-11-10T07:19:27.849Z,82.10
2017-11-10T07:21:56.779Z,82.20
2017-11-10T07:24:24.988Z,82.10
2017-11-10T07:26:53.173Z,81.80
2017-11-10T07:29:21.317Z,82.20
2017-11-10T07:31:49.562Z,82.70
2017-11-10T07:34:17.705Z,83.10
2017-11-10T07:36:46.614Z,83.70
2017-11-10T07:39:14.775Z,83.70
2017-11-10T07:41:43.658Z,84.40
2017-11-10T07:44:12.577Z,84.30
2017-11-10T07:46:40.710Z,84.20
2017-11-10T07:49:09.610Z,84.20
2017-11-10T07:51:39.255Z,84.80
2017-11-10T07:54:07.377Z,84.80
2017-11-10T07:56:36.301Z,84.20
2017-11-10T07:59:04.427Z,84.10
2017-11-10T08:01:32.566Z,84.20
2017-11-10T08:04:00.794Z,84.30
2017-11-10T08:06:29.721Z,84.30
2017-11-10T08:08:58.710Z,84.20
2017-11-10T08:11:26.893Z,84.10
2017-11-10T08:13:55.040Z,84.10
2017-11-10T08:16:23.930Z,84.50
2017-11-10T08:18:52.078Z,84.50
2017-11-10T08:21:20.205Z,84.50
2017-11-10T08:23:48.384Z,84.20
2017-11-10T08:26:16.505Z,84.20
2017-11-10T08:28:44.644Z,84.30
2017-11-10T08:31:12.775Z,84.20
2017-11-10T08:33:40.950Z,84.00
2017-11-10T08:36:09.163Z,84.20
2017-11-10T08:38:37.362Z,83.80
2017-11-10T08:41:06.276Z,84.00
2017-11-10T08:43:34.463Z,84.00
2017-11-10T08:46:02.712Z,83.70
2017-11-10T08:48:31.594Z,84.50
2017-11-10T08:51:00.530Z,84.70
2017-11-10T08:53:28.658Z,84.70
2017-11-10T08:55:57.573Z,84.80
2017-11-10T08:58:25.741Z,84.80
2017-11-10T09:00:53.899Z,84.80
2017-11-10T09:03:22.792Z,84.50
2017-11-10T09:05:51.710Z,85.10
2017-11-10T09:08:19.869Z,85.00
2017-11-10T09:10:48.021Z,84.20
2017-11-10T09:13:16.944Z,83.50
2017-11-10T09:15:45.089Z,83.40
2017-11-10T09:18:13.981Z,84.20
2017-11-10T09:20:42.864Z,83.40
2017-11-10T09:23:11.802Z,83.40
2017-11-10T09:25:39.907Z,83.20
2017-11-10T09:28:12.511Z,83.00
2017-11-10T09:30:57.050Z,82.40
2017-11-10T09:33:26.038Z,82.40
2017-11-10T09:36:06.954Z,82.60
2017-11-10T09:38:54.850Z,83.20
2017-11-10T09:41:28.801Z,82.30
2017-11-10T09:43:57.545Z,81.80
2017-11-10T09:46:26.608Z,82.10
2017-11-10T09:49:00.448Z,82.10
2017-11-10T09:51:47.327Z,82.40
2017-11-10T09:54:20.932Z,82.50
2017-11-10T09:56:54.645Z,83.60
2017-11-10T09:59:23.273Z,83.70
2017-11-10T10:01:53.046Z,83.80
2017-11-10T10:04:38.985Z,84.10
2017-11-10T10:07:22.898Z,84.90
2017-11-10T10:09:51.802Z,84.80
2017-11-10T10:12:28.538Z,84.70
2017-11-10T10:14:59.202Z,84.90
2017-11-10T10:20:27.526Z,86.00
2017-11-10T10:22:56.111Z,86.20
2017-11-10T10:25:24.263Z,86.70
2017-11-10T10:27:52.381Z,86.80
2017-11-10T10:30:20.540Z,87.00
2017-11-10T10:32:48.661Z,87.50
2017-11-10T10:35:18.324Z,86.70
2017-11-10T10:37:46.452Z,86.70
2017-11-10T10:40:14.661Z,87.00
2017-11-10T10:42:42.790Z,87.00
2017-11-10T10:45:11.690Z,86.40
2017-11-10T10:47:39.820Z,86.40
2017-11-10T10:50:07.960Z,86.20
2017-11-10T10:52:36.085Z,86.10
2017-11-10T10:55:05.020Z,86.10
2017-11-10T10:57:33.144Z,86.00
2017-11-10T11:00:02.061Z,87.10
2017-11-10T11:02:30.222Z,87.10
2017-11-10T11:04:59.095Z,87.00
2017-11-10T11:07:28.004Z,86.20
2017-11-10T11:09:56.153Z,86.00
2017-11-10T11:12:24.307Z,85.70
2017-11-10T11:14:52.435Z,86.00
2017-11-10T11:17:20.581Z,86.10
2017-11-10T11:19:49.490Z,85.70
2017-11-10T11:22:17.698Z,85.60
2017-11-10T11:24:45.843Z,86.00
2017-11-10T11:27:13.984Z,85.40
2017-11-10T11:29:42.122Z,86.40
2017-11-10T11:32:10.491Z,84.70
2017-11-10T11:34:38.678Z,85.30
2017-11-10T11:37:06.805Z,86.30
2017-11-10T11:39:34.946Z,85.70
2017-11-10T11:42:03.153Z,85.80
2017-11-10T11:44:32.067Z,86.70
2017-11-10T11:47:00.202Z,86.70
2017-11-10T11:49:29.101Z,87.30
2017-11-10T11:51:58.014Z,87.50
2017-11-10T11:54:26.134Z,87.40
2017-11-10T11:56:54.291Z,86.70
2017-11-10T11:59:23.654Z,86.20
2017-11-10T12:01:52.511Z,85.40
2017-11-10T12:04:20.641Z,86.60
2017-11-10T12:06:48.778Z,86.20
2017-11-10T12:09:17.537Z,86.10
2017-11-10T12:11:46.460Z,86.60
2017-11-10T12:14:14.650Z,86.50
2017-11-10T12:16:42.800Z,87.90
2017-11-10T12:19:11.699Z,87.80
2017-11-10T12:21:39.824Z,87.80
2017-11-10T12:24:07.979Z,88.20
2017-11-10T12:26:36.111Z,87.80
2017-11-10T12:29:04.247Z,89.20
2017-11-10T12:31:33.137Z,88.70
2017-11-10T12:34:02.065Z,87.60
2017-11-10T12:36:30.195Z,87.40
2017-11-10T12:38:58.349Z,88.60
2017-11-10T12:41:26.499Z,88.00
2017-11-10T12:43:54.626Z,87.00
2017-11-10T12:46:22.895Z,87.20
2017-11-10T12:48:51.018Z,87.20
2017-11-10T12:51:19.248Z,87.30
2017-11-10T12:53:48.158Z,87.20
2017-11-10T12:56:17.170Z,87.10
2017-11-10T12:58:45.301Z,87.10
2017-11-10T13:01:14.222Z,87.20
2017-11-10T13:03:42.362Z,87.20
2017-11-10T13:06:11.286Z,87.10
2017-11-10T13:08:39.474Z,87.10
2017-11-10T13:11:07.650Z,88.20
2017-11-10T13:13:35.766Z,87.60
2017-11-10T13:16:04.222Z,87.70
2017-11-10T13:18:32.673Z,87.80
2017-11-10T13:21:00.823Z,87.80
2017-11-10T13:23:28.970Z,87.80
2017-11-10T13:25:57.130Z,87.40
2017-11-10T13:28:25.275Z,87.80
2017-11-10T13:30:53.408Z,87.50
2017-11-10T13:33:21.551Z,87.90
2017-11-10T13:35:49.722Z,87.70
2017-11-10T13:38:17.886Z,87.80
2017-11-10T13:40:46.782Z,87.60
2017-11-10T13:43:14.922Z,87.60
2017-11-10T13:45:43.084Z,88.10
2017-11-10T13:48:11.267Z,87.50
2017-11-10T13:50:39.420Z,89.00
2017-11-10T13:53:07.571Z,88.50
2017-11-10T13:55:36.499Z,88.00
2017-11-10T13:58:04.643Z,87.90
2017-11-10T14:00:33.565Z,87.80
2017-11-10T14:03:01.700Z,87.80
2017-11-10T14:05:30.614Z,87.70
2017-11-10T14:07:58.744Z,87.60
2017-11-10T14:10:26.910Z,87.60
2017-11-10T14:12:55.071Z,88.30
2017-11-10T14:15:23.223Z,88.40
2017-11-10T14:17:51.353Z,88.80
2017-11-10T14:20:20.286Z,88.80
2017-11-10T14:22:48.444Z,88.80
2017-11-10T14:25:16.587Z,89.60
2017-11-10T14:27:45.485Z,89.60
2017-11-10T14:30:13.642Z,89.40
2017-11-10T14:32:42.552Z,89.40
2017-11-10T14:35:10.700Z,89.20
2017-11-10T14:37:39.632Z,89.30
2017-11-10T14:40:07.752Z,89.30
2017-11-10T14:42:35.910Z,89.80
2017-11-10T14:45:04.064Z,90.00
2017-11-10T14:47:32.205Z,89.90
2017-11-10T14:50:00.359Z,90.40
2017-11-10T14:52:29.282Z,90.70
2017-11-10T14:54:57.446Z,90.70
2017-11-10T14:57:25.581Z,90.90
2017-11-10T14:59:54.478Z,91.30
2017-11-10T15:02:23.375Z,91.40
2017-11-10T15:04:52.294Z,91.10
2017-11-10T15:07:20.433Z,91.00
2017-11-10T15:09:49.363Z,91.40
2017-11-10T15:12:17.518Z,91.20
2017-11-10T15:14:45.772Z,91.20
2017-11-10T15:17:13.917Z,91.50
2017-11-10T15:19:42.053Z,91.70
2017-11-10T15:22:10.849Z,91.80
2017-11-10T15:24:39.117Z,91.70
2017-11-10T15:27:07.294Z,92.00
2017-11-10T15:29:35.452Z,92.10
2017-11-10T15:32:03.661Z,92.10
2017-11-10T15:34:32.043Z,91.80
2017-11-10T15:37:00.709Z,91.70
2017-11-10T15:39:29.634Z,91.90
2017-11-10T15:41:57.900Z,91.80
2017-11-10T15:44:26.069Z,92.10
2017-11-10T15:46:54.271Z,92.20
2017-11-10T15:49:22.417Z,92.10
2017-11-10T15:51:50.602Z,92.00
2017-11-10T15:54:20.112Z,92.20
2017-11-10T15:56:49.264Z,92.30
2017-11-10T15:59:17.443Z,92.30
2017-11-10T16:01:46.376Z,92.20
2017-11-10T16:04:16.787Z,92.10
2017-11-10T16:06:44.926Z,92.30
2017-11-10T16:09:13.082Z,92.50
2017-11-10T16:11:41.995Z,92.20
2017-11-10T16:14:10.257Z,92.20
2017-11-10T16:16:38.487Z,92.40
2017-11-10T16:19:06.781Z,92.40
2017-11-10T16:21:34.932Z,92.50
2017-11-10T16:24:03.142Z,92.40
2017-11-10T16:26:32.056Z,92.60
2017-11-10T16:29:00.222Z,92.60
2017-11-10T16:31:28.387Z,92.60
2017-11-10T16:33:57.351Z,92.90
2017-11-10T16:36:25.490Z,92.80
2017-11-10T16:38:54.409Z,92.70
2017-11-10T16:41:22.593Z,92.70
2017-11-10T16:43:50.781Z,92.40
2017-11-10T16:46:19.713Z,92.40
2017-11-10T16:48:47.868Z,92.40
2017-11-10T16:51:16.020Z,92.50
2017-11-10T16:53:44.910Z,92.50
2017-11-10T16:56:13.861Z,92.50
2017-11-10T16:58:43.539Z,92.70
2017-11-10T17:01:13.561Z,92.60
2017-11-10T17:03:41.772Z,92.60
2017-11-10T17:06:09.923Z,92.60
2017-11-10T17:08:38.070Z,92.70
2017-11-10T17:11:06.857Z,92.60
2017-11-10T17:13:34.995Z,92.60
2017-11-10T17:16:03.928Z,93.00
2017-11-10T17:18:32.087Z,92.90
2017-11-10T17:21:00.255Z,92.90
2017-11-10T17:23:28.399Z,92.90
2017-11-10T17:25:57.308Z,93.10
2017-11-10T17:28:26.806Z,92.70
2017-11-10T17:30:55.725Z,92.60
2017-11-10T17:33:24.047Z,92.60
2017-11-10T17:35:52.201Z,92.70
2017-11-10T17:38:20.340Z,92.60
2017-11-10T17:40:48.525Z,92.50
2017-11-10T17:43:16.655Z,92.60
2017-11-10T17:45:45.563Z,92.70
2017-11-10T17:48:13.702Z,92.70
2017-11-10T17:50:41.890Z,92.70
2017-11-10T17:53:10.796Z,92.60
2017-11-10T17:55:38.958Z,92.50
2017-11-10T17:58:07.871Z,92.70
2017-11-10T18:00:36.004Z,92.70
2017-11-10T18:03:04.942Z,92.40
2017-11-10T18:05:33.115Z,92.40
2017-11-10T18:08:01.273Z,92.40
2017-11-10T18:10:30.190Z,92.60
2017-11-10T18:26:00.387Z,92.00
2017-11-10T18:28:28.623Z,92.20
2017-11-10T18:30:57.565Z,92.10
2017-11-10T18:33:25.729Z,92.10
2017-11-10T18:35:54.611Z,92.30
2017-11-10T18:38:23.037Z,92.30
2017-11-10T18:40:51.152Z,92.20
2017-11-10T18:43:19.307Z,92.30
2017-11-10T18:45:48.209Z,92.90
2017-11-10T18:48:22.002Z,92.80
2017-11-10T18:50:50.895Z,92.50
2017-11-10T18:53:19.790Z,92.40
2017-11-10T18:55:52.622Z,92.50
2017-11-10T18:58:20.762Z,92.50
2017-11-10T19:00:48.894Z,92.90
2017-11-10T19:03:18.483Z,93.00
2017-11-10T19:05:48.382Z,93.70
2017-11-10T19:08:16.512Z,93.40
2017-11-10T19:10:45.413Z,93.20
2017-11-10T19:13:13.547Z,93.20
2017-11-10T19:15:41.670Z,93.60
2017-11-10T19:18:09.835Z,93.70
2017-11-10T19:20:37.957Z,93.80
2017-11-10T19:23:06.132Z,93.70
2017-11-10T19:25:34.275Z,93.50
2017-11-10T19:28:02.452Z,93.60
2017-11-10T19:30:31.397Z,93.60
2017-11-10T19:33:00.279Z,93.50
2017-11-10T19:35:29.185Z,93.40
2017-11-10T19:37:57.730Z,93.40
2017-11-10T19:40:25.973Z,93.40
2017-11-10T19:42:54.141Z,93.70
2017-11-10T19:45:22.293Z,93.90
2017-11-10T19:47:50.446Z,93.60
2017-11-10T19:50:19.369Z,94.00
2017-11-10T19:52:48.145Z,93.70
2017-11-10T19:55:16.304Z,93.50
2017-11-10T19:57:45.194Z,93.80
2017-11-10T20:00:14.114Z,93.90
2017-11-10T20:02:43.213Z,93.90
2017-11-10T20:05:11.881Z,93.90
2017-11-10T20:07:40.021Z,93.70
2017-11-10T20:10:08.924Z,93.70
2017-11-10T20:12:37.072Z,93.40
2017-11-10T20:15:06.701Z,93.60
2017-11-10T20:17:35.239Z,93.60
2017-11-10T20:20:03.417Z,93.50
2017-11-10T20:22:31.557Z,93.50
2017-11-10T20:24:59.730Z,93.50
2017-11-10T20:27:27.857Z,93.60
2017-11-10T20:29:56.775Z,93.80
2017-11-10T20:32:24.988Z,93.70
2017-11-10T20:34:53.116Z,93.70
2017-11-10T20:37:21.273Z,93.60
2017-11-10T20:39:50.193Z,93.60
2017-11-10T20:42:19.117Z,93.60
2017-11-10T20:44:47.246Z,93.60
2017-11-10T20:47:15.389Z,93.80
2017-11-10T20:49:44.313Z,93.30
2017-11-10T20:52:12.479Z,93.50
2017-11-10T20:54:40.618Z,93.60
2017-11-10T20:57:08.772Z,93.50
2017-11-10T20:59:36.893Z,93.20
2017-11-10T21:02:05.045Z,93.40
2017-11-10T21:04:34.701Z,93.60
2017-11-10T21:07:02.851Z,93.60
2017-11-10T21:09:31.760Z,93.70
2017-11-10T21:11:59.883Z,93.60
2017-11-10T21:14:28.040Z,93.70
2017-11-10T21:16:56.968Z,93.50
2017-11-10T21:19:25.854Z,93.50
2017-11-10T21:21:53.978Z,93.50
2017-11-10T21:24:22.112Z,93.10
2017-11-10T21:26:52.085Z,93.40
2017-11-10T21:29:20.327Z,93.30
2017-11-10T21:31:48.444Z,93.50
2017-11-10T21:34:17.335Z,93.30
2017-11-10T21:36:46.260Z,93.20
2017-11-10T21:39:15.158Z,93.20
2017-11-10T21:41:44.089Z,93.40
2017-11-10T21:44:12.217Z,93.50
2017-11-10T21:46:40.363Z,93.40
2017-11-10T21:49:09.293Z,93.60
2017-11-10T21:51:37.423Z,93.90
2017-11-10T21:54:06.349Z,93.50
2017-11-10T21:56:34.478Z,93.50
2017-11-10T21:59:03.393Z,93.40
2017-11-10T22:01:31.527Z,93.60
2017-11-10T22:03:59.665Z,93.40
2017-11-10T22:06:28.572Z,93.30
2017-11-10T22:08:56.872Z,93.50
2017-11-10T22:11:26.718Z,93.10
2017-11-10T22:13:55.595Z,93.10
2017-11-10T22:16:23.725Z,93.10
2017-11-10T22:18:51.859Z,93.20
2017-11-10T22:21:20.030Z,92.90
2017-11-10T22:23:48.136Z,93.00
2017-11-10T22:26:16.266Z,93.10
2017-11-10T22:28:44.423Z,93.10
2017-11-10T22:31:13.290Z,93.30
2017-11-10T22:33:42.318Z,93.20
2017-11-10T22:36:10.441Z,93.20
2017-11-10T22:38:38.570Z,93.60
2017-11-10T22:41:06.725Z,93.50
2017-11-10T22:43:35.687Z,93.60
2017-11-10T22:46:03.812Z,93.60
2017-11-10T22:48:32.612Z,93.70
2017-11-10T22:51:00.744Z,93.60
2017-11-10T22:53:29.668Z,93.50
2017-11-10T22:55:57.818Z,93.50
2017-11-10T22:58:26.718Z,93.30
2017-11-10T23:00:54.877Z,93.20
2017-11-10T23:03:23.012Z,93.40
2017-11-10T23:05:51.141Z,93.30
2017-11-10T23:08:19.254Z,93.30
2017-11-10T23:10:47.506Z,93.30
2017-11-10T23:13:15.617Z,93.10
2017-11-10T23:15:44.516Z,92.70
2017-11-10T23:18:13.589Z,92.50
2017-11-10T23:20:41.714Z,92.50
2017-11-10T23:23:10.614Z,92.50
2017-11-10T23:25:38.736Z,92.50
2017-11-10T23:28:07.663Z,92.90
2017-11-10T23:30:35.807Z,92.90
2017-11-10T23:33:04.687Z,92.70
2017-11-10T23:35:33.596Z,93.10
2017-11-10T23:38:02.466Z,92.70
2017-11-10T23:40:31.396Z,92.40
2017-11-10T23:42:59.514Z,92.40
2017-11-10T23:45:27.658Z,92.50
2017-11-10T23:47:55.817Z,92.80
2017-11-10T23:50:23.965Z,93.00
2017-11-10T23:52:52.887Z,92.60
2017-11-10T23:55:21.006Z,92.50
2017-11-10T23:57:49.919Z,92.40
